Time;durP1;ratioP1;P1;durP2;ratioP2;P2;SDS_P1;SDS_P2;PMS_P1;PMS_P2;Temp;Humidity;BMP_temperature;BMP_pressure;BME280_temperature;BME280_humidity;BME280_pressure;Samples;Min_cycle;Max_cycle;Signal;HPM_P1;HPM_P2
2023/06/07 00:02:12;;;;;;;6.07;4.27;;;;;;;18.65;68.10;95075.34;5053593;28;20863;-79
2023/06/07 00:04:40;;;;;;;7.63;3.80;;;;;;;18.55;68.94;95067.59;5053058;28;20804;-78
2023/06/07 00:07:10;;;;;;;5.00;3.97;;;;;;;18.72;70.75;95076.31;5053011;28;20618;-79
2023/06/07 00:09:37;;;;;;;10.70;4.47;;;;;;;18.64;69.16;95073.69;5052998;28;20456;-79
2023/06/07 00:12:06;;;;;;;5.50;4.27;;;;;;;18.56;69.55;95061.25;5053453;28;20505;-78
2023/06/07 00:14:32;;;;;;;13.53;3.90;;;;;;;18.45;68.56;95063.47;5053363;28;20495;-79
2023/06/07 00:17:00;;;;;;;5.17;3.77;;;;;;;18.43;68.28;95058.31;5053268;28;20539;-79
2023/06/07 00:19:27;;;;;;;5.60;4.50;;;;;;;18.39;68.20;95058.84;5052853;28;20817;-78
2023/06/07 00:21:54;;;;;;;6.23;3.50;;;;;;;18.45;69.56;95060.81;5053210;28;20449;-78
2023/06/07 00:24:23;;;;;;;5.83;3.20;;;;;;;18.39;66.11;95062.34;5053256;28;20482;-78
2023/06/07 00:26:49;;;;;;;3.57;3.13;;;;;;;18.46;66.49;95057.97;5053222;28;20451;-78
2023/06/07 00:29:16;;;;;;;4.90;3.80;;;;;;;18.37;65.97;95052.88;5053004;28;20450;-78
2023/06/07 00:31:43;;;;;;;6.37;3.23;;;;;;;18.41;64.70;95059.50;5053000;28;20820;-79
2023/06/07 00:34:10;;;;;;;6.27;3.60;;;;;;;18.39;66.03;95059.69;5053067;28;20448;-79
2023/06/07 00:36:37;;;;;;;3.57;3.27;;;;;;;18.39;66.38;95050.88;5052677;28;20884;-78
2023/06/07 00:39:04;;;;;;;6.80;3.70;;;;;;;18.42;64.60;95053.19;5052911;28;20450;-78
2023/06/07 00:41:32;;;;;;;10.43;3.20;;;;;;;18.39;64.81;95054.38;5052833;28;20943;-78
2023/06/07 00:44:01;;;;;;;6.47;3.87;;;;;;;18.24;63.97;95046.31;5052967;28;20524;-78
2023/06/07 00:46:30;;;;;;;6.20;2.70;;;;;;;18.30;64.56;95050.09;5018560;28;20801;-78
2023/06/07 00:48:58;;;;;;;6.73;4.20;;;;;;;18.33;64.74;95036.47;5018005;28;20455;-77
2023/06/07 00:51:29;;;;;;;3.93;3.10;;;;;;;18.35;64.06;95031.81;5033933;28;20445;-78
2023/06/07 00:54:00;;;;;;;4.47;3.43;;;;;;;18.40;64.42;95034.75;5052702;28;20454;-78
2023/06/07 00:56:27;;;;;;;4.00;3.60;;;;;;;18.42;64.42;95039.91;5052316;28;21070;-77
2023/06/07 00:58:56;;;;;;;3.53;3.23;;;;;;;18.39;63.52;95034.94;5052712;28;20446;-79
2023/06/07 01:01:23;;;;;;;6.33;3.63;;;;;;;18.36;63.34;95028.16;5052897;28;20445;-79
2023/06/07 01:03:49;;;;;;;5.30;3.90;;;;;;;18.42;65.48;95032.75;5052513;28;20456;-78
2023/06/07 01:06:16;;;;;;;3.37;3.07;;;;;;;18.34;63.35;95030.16;5052771;28;20447;-79
2023/06/07 01:08:44;;;;;;;11.30;3.50;;;;;;;18.44;65.85;95041.38;5052908;28;20438;-79
2023/06/07 01:11:12;;;;;;;5.20;3.63;;;;;;;18.31;64.23;95035.81;5052644;28;20503;-78
2023/06/07 01:13:40;;;;;;;6.47;3.83;;;;;;;18.30;63.51;95033.34;5017244;28;20856;-78
2023/06/07 01:16:09;;;;;;;7.30;3.13;;;;;;;18.42;64.49;95038.06;5052405;28;21003;-78
2023/06/07 01:18:37;;;;;;;8.20;3.73;;;;;;;18.41;63.24;95032.94;5034004;28;20450;-78
2023/06/07 01:21:06;;;;;;;5.83;3.80;;;;;;;18.35;62.78;95031.81;5052194;28;20483;-78
2023/06/07 01:23:36;;;;;;;8.30;3.70;;;;;;;18.35;63.12;95029.16;5052240;28;20450;-78
2023/06/07 01:26:04;;;;;;;6.17;3.03;;;;;;;18.34;61.60;95034.63;5054898;28;20458;-78
2023/06/07 01:28:34;;;;;;;4.47;3.70;;;;;;;18.36;64.36;95036.13;5056081;28;20500;-78
2023/06/07 01:31:02;;;;;;;6.27;3.90;;;;;;;18.41;65.55;95039.06;5056058;28;20533;-78
2023/06/07 01:33:31;;;;;;;6.90;3.77;;;;;;;18.22;62.88;95029.72;5037115;28;20445;-78
2023/06/07 01:35:59;;;;;;;3.10;2.83;;;;;;;18.12;60.89;95036.22;5055967;28;20519;-78
2023/06/07 01:38:27;;;;;;;4.30;3.90;;;;;;;18.13;60.41;95030.75;5055545;28;20449;-78
2023/06/07 01:40:57;;;;;;;3.53;3.23;;;;;;;18.08;62.74;95032.25;5037031;28;20524;-78
2023/06/07 01:43:24;;;;;;;4.53;3.77;;;;;;;18.07;63.56;95033.25;5055743;28;20531;-80
2023/06/07 01:45:53;;;;;;;4.37;3.80;;;;;;;17.99;65.65;95042.09;5055749;28;20454;-80
2023/06/07 01:48:20;;;;;;;6.07;4.43;;;;;;;18.07;66.94;95033.25;5036815;28;20861;-78
2023/06/07 01:50:47;;;;;;;4.30;3.57;;;;;;;18.02;66.13;95028.47;5055472;28;20864;-80
2023/06/07 01:53:15;;;;;;;6.47;4.27;;;;;;;17.95;66.25;95032.81;5055761;28;20467;-78
2023/06/07 01:55:42;;;;;;;5.40;4.17;;;;;;;17.82;67.46;95025.38;5036864;28;20440;-79
2023/06/07 01:58:19;;;;;;;3.63;3.33;;;;;;;17.86;66.75;95020.56;5055511;28;20452;-78
2023/06/07 02:00:53;;;;;;;8.40;3.47;;;;;;;17.64;67.11;95022.09;5055511;28;20443;-81
2023/06/07 02:03:27;;;;;;;5.70;4.00;;;;;;;17.64;68.58;95016.81;5055354;28;20446;-79
2023/06/07 02:05:59;;;;;;;3.70;3.33;;;;;;;17.64;68.66;95020.28;5055748;28;20524;-78
2023/06/07 02:08:30;;;;;;;3.70;3.30;;;;;;;17.73;69.26;95025.59;5055292;28;20495;-78
2023/06/07 02:10:58;;;;;;;4.50;3.83;;;;;;;17.70;68.95;95021.47;5055464;28;20547;-78
2023/06/07 02:13:28;;;;;;;4.37;3.90;;;;;;;17.69;68.68;95022.44;5055263;28;20449;-79
2023/06/07 02:15:55;;;;;;;4.47;3.80;;;;;;;17.66;68.27;95025.41;5055095;28;20444;-78
2023/06/07 02:18:24;;;;;;;7.50;3.53;;;;;;;17.66;68.20;95020.09;5055317;28;20450;-79
2023/06/07 02:20:51;;;;;;;5.17;3.80;;;;;;;17.58;68.70;95023.59;5055041;28;21248;-80
2023/06/07 02:23:18;;;;;;;5.10;3.50;;;;;;;17.43;68.75;95027.13;5036157;28;20430;-79
2023/06/07 02:25:45;;;;;;;7.73;4.33;;;;;;;17.42;68.76;95020.16;5055066;28;20443;-79
2023/06/07 02:28:12;;;;;;;5.03;3.50;;;;;;;17.48;69.22;95022.13;5055329;28;20437;-80
2023/06/07 02:30:40;;;;;;;4.40;3.90;;;;;;;17.47;69.96;95020.47;5054974;28;20452;-79
2023/06/07 02:33:13;;;;;;;5.33;3.83;;;;;;;17.43;68.75;95029.78;5020115;28;20520;-80
2023/06/07 02:35:40;;;;;;;7.97;4.10;;;;;;;17.45;69.33;95028.59;5037517;28;20854;-80
2023/06/07 02:38:08;;;;;;;4.63;4.13;;;;;;;17.51;69.61;95035.06;5053509;28;20527;-80
2023/06/07 02:40:35;;;;;;;5.70;4.53;;;;;;;17.44;68.81;95019.00;5054916;28;20806;-79
2023/06/07 02:43:02;;;;;;;5.70;4.67;;;;;;;17.50;69.13;95042.19;5054875;28;20496;-79
2023/06/07 02:45:29;;;;;;;8.03;3.57;;;;;;;17.43;69.47;95037.72;5054939;28;20528;-83
2023/06/07 02:47:57;;;;;;;6.03;4.50;;;;;;;17.28;70.68;95029.63;5054720;28;20449;-82
2023/06/07 02:50:25;;;;;;;4.33;3.70;;;;;;;17.29;70.13;95034.75;5054856;28;20457;-82
2023/06/07 02:52:52;;;;;;;9.53;3.97;;;;;;;17.27;70.13;95035.91;5054911;28;20450;-81
2023/06/07 02:55:18;;;;;;;5.27;3.63;;;;;;;17.10;70.04;95035.13;5055337;28;20445;-82
2023/06/07 02:57:45;;;;;;;5.90;4.13;;;;;;;17.08;70.97;95026.50;5055275;28;20492;-82
2023/06/07 03:00:14;;;;;;;4.67;3.43;;;;;;;17.18;70.21;95036.94;5019392;28;20507;-80
2023/06/07 03:02:41;;;;;;;4.07;3.70;;;;;;;17.17;70.27;95036.09;4987843;28;20473;-79
2023/06/07 03:05:10;;;;;;;5.00;3.77;;;;;;;17.15;70.20;95026.66;5054413;28;20456;-78
2023/06/07 03:07:37;;;;;;;6.47;4.23;;;;;;;17.19;69.66;95025.31;5054412;28;20448;-78
2023/06/07 03:10:04;;;;;;;4.07;3.67;;;;;;;17.07;70.53;95030.16;5054112;28;20977;-78
2023/06/07 03:12:31;;;;;;;4.03;3.63;;;;;;;17.14;70.43;95020.53;5053928;28;20839;-79
2023/06/07 03:14:58;;;;;;;7.33;3.67;;;;;;;17.08;70.18;95020.38;5054524;28;20452;-79
2023/06/07 03:17:25;;;;;;;3.90;3.60;;;;;;;17.16;71.33;95018.53;5054385;28;20493;-79
2023/06/07 03:19:51;;;;;;;9.53;3.90;;;;;;;17.05;70.98;95026.81;5019144;28;20460;-78
2023/06/07 03:22:21;;;;;;;4.50;3.47;;;;;;;17.03;70.75;95023.50;5053840;28;20508;-79
2023/06/07 03:24:49;;;;;;;4.23;3.83;;;;;;;17.06;71.04;95025.84;5054201;28;20807;-79
2023/06/07 03:27:17;;;;;;;9.67;3.60;;;;;;;17.16;70.93;95028.31;5053926;28;20473;-79
2023/06/07 03:29:43;;;;;;;5.20;3.97;;;;;;;17.12;71.01;95019.03;5018569;28;20976;-79
2023/06/07 03:32:10;;;;;;;4.77;3.70;;;;;;;17.14;71.30;95014.41;5053807;28;20928;-80
2023/06/07 03:34:37;;;;;;;4.00;3.50;;;;;;;17.27;71.26;95023.47;5039105;28;20459;-79
2023/06/07 03:37:04;;;;;;;9.17;4.20;;;;;;;17.19;70.35;95022.66;5050833;28;20493;-79
2023/06/07 03:39:32;;;;;;;13.73;4.40;;;;;;;17.22;70.90;95023.16;5029744;28;20963;-79
2023/06/07 03:42:00;;;;;;;5.73;3.40;;;;;;;17.27;70.21;95031.44;5053489;28;20507;-79
2023/06/07 03:44:27;;;;;;;3.80;3.50;;;;;;;17.37;71.21;95031.28;5018551;28;20591;-79
2023/06/07 03:46:54;;;;;;;7.20;4.30;;;;;;;17.45;70.51;95023.31;5053342;28;21002;-79
2023/06/07 03:49:21;;;;;;;5.47;4.23;;;;;;;17.29;69.58;95025.97;5053610;28;20435;-80
2023/06/07 03:51:49;;;;;;;5.37;4.60;;;;;;;17.25;70.81;95030.78;5053793;28;20447;-80
2023/06/07 03:54:16;;;;;;;8.60;3.80;;;;;;;17.29;70.25;95029.44;5053979;28;20445;-79
2023/06/07 03:56:44;;;;;;;4.33;3.23;;;;;;;17.14;71.31;95020.53;5053223;28;20513;-79
2023/06/07 03:59:12;;;;;;;4.60;4.07;;;;;;;17.22;71.29;95022.34;5053109;28;20441;-79
2023/06/07 04:01:39;;;;;;;4.43;4.03;;;;;;;17.33;72.53;95025.47;5053176;28;20451;-79
2023/06/07 04:04:06;;;;;;;3.87;3.07;;;;;;;17.54;72.79;95029.41;5053474;28;20446;-79
2023/06/07 04:06:34;;;;;;;8.73;4.07;;;;;;;17.82;71.81;95028.03;5053459;28;20937;-79
2023/06/07 04:09:03;;;;;;;4.97;3.70;;;;;;;18.14;69.96;95028.91;5053125;28;20454;-78
2023/06/07 04:11:30;;;;;;;3.90;3.30;;;;;;;18.42;68.49;95021.31;5052415;28;20459;-79
2023/06/07 04:13:58;;;;;;;4.10;3.57;;;;;;;18.82;67.38;95022.94;5053114;28;20442;-79
2023/06/07 04:16:25;;;;;;;7.17;3.87;;;;;;;19.24;65.36;95016.25;5053271;28;20444;-79
2023/06/07 04:18:51;;;;;;;4.13;3.43;;;;;;;19.67;65.39;95018.22;5053434;28;20461;-79
2023/06/07 04:21:18;;;;;;;9.60;3.90;;;;;;;20.04;61.78;95014.63;5053232;28;20458;-79
2023/06/07 04:23:45;;;;;;;3.53;3.20;;;;;;;20.33;58.70;95026.25;5053163;28;20503;-79
2023/06/07 04:26:11;;;;;;;5.70;3.47;;;;;;;20.62;58.94;95017.41;5053176;28;20441;-79
2023/06/07 04:28:41;;;;;;;6.03;3.70;;;;;;;20.73;57.78;95023.03;5052612;28;20874;-79
2023/06/07 04:31:12;;;;;;;3.13;2.87;;;;;;;20.91;58.40;95017.28;5053205;28;20445;-79
2023/06/07 04:33:39;;;;;;;9.53;4.00;;;;;;;20.82;60.58;95021.09;5053007;28;20436;-78
2023/06/07 04:36:08;;;;;;;5.20;3.20;;;;;;;20.93;62.17;95025.94;5052663;28;20450;-77
2023/06/07 04:38:35;;;;;;;10.20;3.90;;;;;;;20.98;57.58;95023.50;5052366;28;20993;-79
2023/06/07 04:41:06;;;;;;;3.93;3.50;;;;;;;21.06;58.50;95013.72;5052942;28;20457;-79
2023/06/07 04:43:35;;;;;;;8.63;4.67;;;;;;;21.14;58.93;95014.44;5052864;28;20575;-79
2023/06/07 04:46:02;;;;;;;5.90;4.13;;;;;;;20.57;58.31;95014.47;5053016;28;20451;-79
2023/06/07 04:48:31;;;;;;;11.23;3.73;;;;;;;20.49;59.35;95017.22;5052855;28;20499;-79
2023/06/07 04:51:04;;;;;;;5.77;3.30;;;;;;;20.26;60.46;95022.69;5053391;28;20437;-80
2023/06/07 04:53:36;;;;;;;4.87;3.87;;;;;;;20.14;61.66;95024.16;5052797;28;20435;-79
2023/06/07 04:56:03;;;;;;;6.70;3.70;;;;;;;20.17;62.21;95018.44;5051393;28;20447;-80
2023/06/07 04:58:30;;;;;;;6.53;3.33;;;;;;;20.17;62.81;95013.94;5051737;28;20485;-80
2023/06/07 05:00:57;;;;;;;4.07;3.67;;;;;;;20.14;62.15;95021.50;5053937;28;20445;-80
2023/06/07 05:03:24;;;;;;;4.20;3.67;;;;;;;20.21;62.64;95015.22;5055752;28;20539;-79
2023/06/07 05:05:53;;;;;;;6.23;3.50;;;;;;;20.25;65.77;95011.19;5055349;28;20449;-79
2023/06/07 05:08:20;;;;;;;5.43;4.00;;;;;;;20.29;66.79;95014.31;5055180;28;20446;-79
2023/06/07 05:10:47;;;;;;;7.50;3.87;;;;;;;20.26;66.36;95010.19;5055501;28;20936;-79
2023/06/07 05:13:14;;;;;;;9.47;4.63;;;;;;;20.33;66.60;95010.25;5055420;28;20939;-80
2023/06/07 05:15:40;;;;;;;6.63;4.60;;;;;;;20.39;67.56;95018.31;5055181;28;20922;-79
2023/06/07 05:18:07;;;;;;;6.97;3.93;;;;;;;20.50;66.73;95025.03;5037745;28;20531;-78
2023/06/07 05:20:34;;;;;;;5.93;3.93;;;;;;;20.48;63.47;95023.56;5056061;28;20449;-82
2023/06/07 05:23:02;;;;;;;4.00;3.70;;;;;;;20.54;63.57;95013.00;5056458;28;20456;-79
2023/06/07 05:25:29;;;;;;;3.93;3.53;;;;;;;20.51;61.56;95017.88;5056146;28;20524;-79
2023/06/07 05:27:56;;;;;;;4.40;3.83;;;;;;;20.47;62.39;95021.91;5056196;28;20528;-79
2023/06/07 05:30:24;;;;;;;6.23;4.03;;;;;;;20.44;62.44;95023.13;5056437;28;20511;-78
2023/06/07 05:32:51;;;;;;;7.80;4.03;;;;;;;20.41;63.28;95020.84;5021033;28;20495;-79
2023/06/07 05:35:18;;;;;;;9.63;3.70;;;;;;;20.42;63.70;95020.66;5056173;28;20438;-79
2023/06/07 05:37:45;;;;;;;7.60;4.50;;;;;;;20.38;65.02;95018.53;5055132;28;20999;-79
2023/06/07 05:40:17;;;;;;;10.30;4.20;;;;;;;20.20;63.56;95021.56;5054830;28;20536;-79
2023/06/07 05:42:44;;;;;;;3.80;3.33;;;;;;;20.25;63.77;95021.03;5055096;28;20464;-78
2023/06/07 05:45:11;;;;;;;4.40;3.90;;;;;;;20.33;64.78;95021.75;5054443;28;20567;-79
2023/06/07 05:47:38;;;;;;;5.80;3.47;;;;;;;20.45;63.67;95021.28;5054288;28;20449;-79
2023/06/07 05:50:06;;;;;;;8.40;4.03;;;;;;;20.64;62.82;95015.38;5054814;28;20929;-78
2023/06/07 05:52:32;;;;;;;4.33;3.73;;;;;;;20.85;62.86;95018.06;5054513;28;20446;-79
2023/06/07 05:55:00;;;;;;;6.60;3.37;;;;;;;21.20;61.51;95012.81;5054490;28;20513;-79
2023/06/07 05:57:29;;;;;;;7.80;4.23;;;;;;;21.64;60.78;95018.75;5054592;28;20490;-80
2023/06/07 05:59:55;;;;;;;7.03;3.37;;;;;;;22.12;58.84;95012.69;5054526;28;20443;-79
2023/06/07 06:02:23;;;;;;;9.73;3.70;;;;;;;22.45;58.64;95010.16;5054342;28;20782;-79
2023/06/07 06:04:51;;;;;;;4.53;3.63;;;;;;;22.70;56.34;95013.94;5054437;28;20452;-79
2023/06/07 06:07:19;;;;;;;5.40;3.93;;;;;;;22.85;56.27;95008.47;5054260;28;20459;-79
2023/06/07 06:09:46;;;;;;;9.93;3.90;;;;;;;23.20;55.90;95025.22;5054691;28;20938;-78
2023/06/07 06:12:13;;;;;;;15.87;4.10;;;;;;;23.37;55.05;95015.72;5018508;28;20852;-79
2023/06/07 06:14:41;;;;;;;4.83;3.60;;;;;;;23.55;53.47;95012.44;5053889;28;20440;-79
2023/06/07 06:17:08;;;;;;;5.30;4.00;;;;;;;22.89;54.17;95016.91;5054028;28;20448;-78
2023/06/07 06:19:34;;;;;;;6.13;3.50;;;;;;;23.08;56.80;95014.25;5018802;28;20444;-79
2023/06/07 06:22:01;;;;;;;7.10;3.30;;;;;;;22.95;54.72;95010.75;5054132;28;20449;-79
2023/06/07 06:24:28;;;;;;;5.20;3.13;;;;;;;23.16;56.42;95018.63;5053829;28;21012;-79
2023/06/07 06:26:56;;;;;;;3.20;2.90;;;;;;;23.16;56.19;95011.41;5054350;28;20441;-79
2023/06/07 06:29:23;;;;;;;6.33;3.97;;;;;;;23.43;55.65;95012.25;5053999;28;20459;-79
2023/06/07 06:31:51;;;;;;;7.03;3.87;;;;;;;23.55;54.31;95011.63;5018637;28;20459;-79
2023/06/07 06:34:18;;;;;;;6.23;3.33;;;;;;;23.69;54.96;95021.31;5053781;28;20853;-79
2023/06/07 06:36:45;;;;;;;4.93;3.73;;;;;;;23.69;53.58;95015.94;5053522;28;20454;-79
2023/06/07 06:39:12;;;;;;;5.57;3.60;;;;;;;23.66;53.52;95011.00;5053519;28;20888;-79
2023/06/07 06:41:39;;;;;;;6.47;3.97;;;;;;;23.46;55.52;95014.50;5053297;28;20457;-79
2023/06/07 06:44:06;;;;;;;4.67;3.70;;;;;;;23.30;54.83;95019.44;5053439;28;20523;-79
2023/06/07 06:46:33;;;;;;;6.37;4.33;;;;;;;23.01;57.35;95020.63;5053413;28;20444;-79
2023/06/07 06:49:01;;;;;;;9.67;3.63;;;;;;;23.26;56.63;95021.69;5053462;28;20464;-79
2023/06/07 06:51:27;;;;;;;4.00;3.30;;;;;;;23.38;54.53;95016.53;5053361;28;20933;-79
2023/06/07 06:53:54;;;;;;;4.80;3.23;;;;;;;23.35;56.14;95022.31;5018032;28;20447;-80
2023/06/07 06:56:22;;;;;;;4.90;3.40;;;;;;;23.53;55.75;95019.84;5053199;28;20934;-79
2023/06/07 06:58:52;;;;;;;6.57;3.60;;;;;;;23.25;55.46;95017.38;5053028;28;21085;-79
2023/06/07 07:01:18;;;;;;;6.20;3.63;;;;;;;23.54;55.67;95018.00;5053291;28;20448;-79
2023/06/07 07:03:45;;;;;;;12.97;4.37;;;;;;;23.86;55.85;95005.63;5053212;28;20455;-79
2023/06/07 07:06:13;;;;;;;9.00;4.30;;;;;;;24.10;53.09;95008.47;5053437;28;20451;-79
2023/06/07 07:08:41;;;;;;;6.43;3.87;;;;;;;24.02;53.67;95008.69;5052988;28;20961;-79
2023/06/07 07:11:08;;;;;;;12.73;4.20;;;;;;;23.87;53.79;95009.94;5052955;28;20472;-79
2023/06/07 07:13:35;;;;;;;8.43;4.33;;;;;;;23.80;54.54;95007.28;5052824;28;20449;-79
2023/06/07 07:16:01;;;;;;;3.97;3.47;;;;;;;24.10;55.09;95004.97;5053112;28;20447;-80
2023/06/07 07:18:28;;;;;;;4.83;3.63;;;;;;;24.22;53.43;95008.63;5017214;28;20489;-79
2023/06/07 07:20:55;;;;;;;5.93;4.40;;;;;;;23.99;54.64;95014.44;5053156;28;20452;-79
2023/06/07 07:23:23;;;;;;;4.50;3.47;;;;;;;23.77;54.64;95011.22;5017114;28;20451;-79
2023/06/07 07:25:50;;;;;;;4.23;3.83;;;;;;;23.78;56.49;95014.72;5052733;28;20444;-80
2023/06/07 07:28:17;;;;;;;4.57;3.57;;;;;;;23.93;56.11;95009.13;5052634;28;20486;-79
2023/06/07 07:30:44;;;;;;;5.00;3.67;;;;;;;24.14;54.50;95006.19;5052491;28;20499;-79
2023/06/07 07:33:10;;;;;;;4.67;3.97;;;;;;;24.23;53.71;94998.72;5052848;28;20449;-79
2023/06/07 07:35:37;;;;;;;5.73;3.97;;;;;;;23.91;54.93;95011.19;5052315;28;21009;-79
2023/06/07 07:38:05;;;;;;;4.73;4.20;;;;;;;23.78;56.15;95002.16;5052333;28;20543;-79
2023/06/07 07:40:33;;;;;;;5.43;4.00;;;;;;;23.52;55.71;95004.00;5052674;28;20455;-79
2023/06/07 07:43:00;;;;;;;8.73;3.70;;;;;;;23.76;55.80;95001.53;5052124;28;20457;-79
2023/06/07 07:45:27;;;;;;;7.33;3.77;;;;;;;23.95;55.57;95013.22;5052269;28;20855;-79
2023/06/07 07:47:53;;;;;;;8.47;5.00;;;;;;;24.26;55.53;95003.66;5052339;28;20443;-79
2023/06/07 07:50:20;;;;;;;4.43;3.60;;;;;;;24.51;56.26;95007.31;5052197;28;20448;-79
2023/06/07 07:52:47;;;;;;;3.60;3.30;;;;;;;24.80;54.82;94997.88;5052306;28;20852;-79
2023/06/07 07:55:14;;;;;;;5.43;3.60;;;;;;;24.67;53.56;95004.16;5051937;28;20846;-80
2023/06/07 07:57:43;;;;;;;5.07;3.80;;;;;;;24.31;52.57;94999.34;5052267;28;20495;-80
2023/06/07 08:00:11;;;;;;;4.03;3.73;;;;;;;24.33;52.96;95002.66;5017039;28;20872;-79
2023/06/07 08:02:38;;;;;;;3.80;3.30;;;;;;;24.79;54.39;95000.78;5017066;28;20473;-79
2023/06/07 08:05:06;;;;;;;9.97;4.13;;;;;;;25.07;52.82;95003.13;5052375;28;20504;-79
2023/06/07 08:07:33;;;;;;;4.13;3.80;;;;;;;24.66;52.45;95005.19;5017048;28;20508;-80
2023/06/07 08:10:00;;;;;;;4.10;3.70;;;;;;;24.91;54.00;95001.75;5052243;28;20441;-80
2023/06/07 08:12:27;;;;;;;8.30;3.60;;;;;;;25.11;52.52;95002.47;5052035;28;20441;-79
2023/06/07 08:14:55;;;;;;;5.90;5.23;;;;;;;25.25;51.96;95009.41;5052110;28;20780;-79
2023/06/07 08:17:22;;;;;;;4.17;3.77;;;;;;;25.47;51.85;95001.78;5052062;28;20499;-79
2023/06/07 08:19:49;;;;;;;3.63;3.33;;;;;;;25.64;51.77;95005.56;5051698;28;20485;-80
2023/06/07 08:22:16;;;;;;;7.23;3.80;;;;;;;25.77;52.00;95007.34;5051679;28;20861;-80
2023/06/07 08:24:42;;;;;;;4.10;3.43;;;;;;;25.73;51.29;95008.00;5052013;28;20955;-79
2023/06/07 08:27:09;;;;;;;6.87;3.87;;;;;;;25.87;50.71;95001.47;5051977;28;20854;-79
2023/06/07 08:29:36;;;;;;;5.67;4.10;;;;;;;26.01;50.57;94997.56;5051917;28;20456;-79
2023/06/07 08:32:05;;;;;;;16.47;4.10;;;;;;;26.15;49.42;95000.97;5051918;28;20986;-80
2023/06/07 08:34:32;;;;;;;7.20;3.70;;;;;;;26.16;49.74;94995.34;5051735;28;20438;-79
2023/06/07 08:36:59;;;;;;;4.57;3.60;;;;;;;26.18;50.10;94997.81;5055844;28;20507;-80
2023/06/07 08:39:25;;;;;;;7.00;4.07;;;;;;;26.01;52.13;95000.25;5055762;28;20581;-80
2023/06/07 08:41:52;;;;;;;7.40;4.10;;;;;;;25.81;51.31;94999.66;5037213;28;20495;-79
2023/06/07 08:44:19;;;;;;;4.43;4.00;;;;;;;25.76;50.46;94999.50;5056082;28;20461;-79
2023/06/07 08:46:47;;;;;;;6.10;3.27;;;;;;;25.78;51.66;95003.63;5055682;28;20524;-78
2023/06/07 08:49:16;;;;;;;4.43;3.63;;;;;;;25.80;51.52;94996.16;5055834;28;20442;-78
2023/06/07 08:51:43;;;;;;;4.37;4.03;;;;;;;25.50;53.00;94995.97;5055684;28;20491;-79
2023/06/07 08:54:14;;;;;;;5.70;4.03;;;;;;;25.73;53.05;94995.38;5055769;28;20518;-79
2023/06/07 08:56:42;;;;;;;7.13;4.53;;;;;;;25.90;51.24;95001.84;5055701;28;20511;-79
2023/06/07 08:59:10;;;;;;;5.57;4.53;;;;;;;25.82;51.39;95002.13;5055459;28;20485;-79
2023/06/07 09:01:38;;;;;;;4.73;3.43;;;;;;;25.88;50.76;94992.34;5055456;28;20442;-79
2023/06/07 09:04:05;;;;;;;3.80;3.50;;;;;;;25.47;50.77;94995.59;5055458;28;20472;-79
2023/06/07 09:06:34;;;;;;;5.07;3.90;;;;;;;25.55;51.47;95000.69;5055477;28;20445;-78
2023/06/07 09:09:02;;;;;;;7.33;4.67;;;;;;;25.54;52.28;95001.72;5055202;28;20450;-79
2023/06/07 09:11:30;;;;;;;6.40;4.13;;;;;;;25.63;51.93;94992.34;5055631;28;20503;-79
2023/06/07 09:13:57;;;;;;;8.13;4.03;;;;;;;25.43;53.19;94989.81;5056398;28;20496;-79
2023/06/07 09:16:24;;;;;;;6.70;4.40;;;;;;;25.19;52.86;94991.47;5055987;28;20524;-79
2023/06/07 09:18:53;;;;;;;4.87;3.80;;;;;;;25.19;53.17;94988.78;5056516;28;20477;-79
2023/06/07 09:21:22;;;;;;;6.57;3.93;;;;;;;25.32;53.96;94991.34;5056578;28;20449;-79
2023/06/07 09:23:50;;;;;;;4.23;3.83;;;;;;;25.20;54.33;94985.06;5056791;28;20536;-79
2023/06/07 09:26:17;;;;;;;8.53;3.57;;;;;;;25.31;54.46;94992.41;5056592;28;20499;-79
2023/06/07 09:28:46;;;;;;;4.70;4.30;;;;;;;25.45;53.45;94993.13;5056863;28;20456;-79
2023/06/07 09:31:13;;;;;;;4.47;3.70;;;;;;;25.63;52.59;94986.97;5056444;28;20528;-80
2023/06/07 09:33:40;;;;;;;4.93;4.53;;;;;;;25.70;51.22;94993.13;5056091;28;20929;-79
2023/06/07 09:36:08;;;;;;;8.30;3.87;;;;;;;25.66;53.09;94985.69;5056162;28;20453;-79
2023/06/07 09:38:35;;;;;;;6.83;3.97;;;;;;;25.65;52.45;94987.56;5056152;28;20492;-79
2023/06/07 09:41:05;;;;;;;7.10;4.90;;;;;;;25.35;52.50;94989.28;5056065;28;20449;-79
2023/06/07 09:43:46;;;;;;;8.33;3.97;;;;;;;24.81;54.75;94982.59;5055837;28;20477;-79
2023/06/07 09:46:13;;;;;;;6.67;3.97;;;;;;;24.45;53.89;94983.19;5055631;28;20529;-79
2023/06/07 09:48:48;;;;;;;6.53;3.87;;;;;;;24.67;56.18;94984.53;5036859;28;20802;-80
2023/06/07 09:51:15;;;;;;;9.87;5.77;;;;;;;24.77;55.60;94984.88;5054468;28;20527;-79
2023/06/07 09:53:54;;;;;;;7.73;4.50;;;;;;;24.89;54.91;94982.34;5035373;28;20512;-79
2023/06/07 09:56:23;;;;;;;14.70;4.13;;;;;;;25.03;55.09;94986.63;5054393;28;20442;-79
2023/06/07 09:59:05;;;;;;;6.13;3.77;;;;;;;24.94;54.11;94987.88;5054348;28;20531;-78
2023/06/07 10:01:33;;;;;;;5.70;4.40;;;;;;;24.87;52.20;94979.06;5054073;28;21047;-78
2023/06/07 10:04:02;;;;;;;4.73;3.73;;;;;;;24.94;54.49;94982.53;5054068;28;20520;-78
2023/06/07 10:06:32;;;;;;;6.07;4.73;;;;;;;24.82;53.13;94979.69;5054088;28;20859;-78
2023/06/07 10:09:02;;;;;;;4.27;3.87;;;;;;;24.84;55.01;94984.84;5053921;28;20939;-79
2023/06/07 10:11:32;;;;;;;7.37;3.90;;;;;;;24.93;52.80;94973.66;5054168;28;20457;-80
2023/06/07 10:14:05;;;;;;;4.50;3.87;;;;;;;24.48;54.29;94966.66;5053719;28;20532;-79
2023/06/07 10:16:35;;;;;;;10.70;4.60;;;;;;;24.33;53.69;94973.16;5053797;28;20896;-79
2023/06/07 10:19:05;;;;;;;4.20;3.80;;;;;;;24.24;52.67;94965.50;5053749;28;20848;-79
2023/06/07 10:21:35;;;;;;;5.40;4.13;;;;;;;24.32;54.80;94965.31;5053807;28;20456;-79
2023/06/07 10:24:08;;;;;;;4.23;3.83;;;;;;;24.37;52.51;94963.63;5053831;28;20459;-79
2023/06/07 10:26:48;;;;;;;7.27;4.00;;;;;;;24.69;54.26;94969.03;5053823;28;20535;-79
2023/06/07 10:29:18;;;;;;;4.27;3.90;;;;;;;24.67;53.83;94963.88;5053970;28;20511;-79
2023/06/07 10:31:48;;;;;;;4.00;3.50;;;;;;;24.82;55.32;94965.44;5053734;28;20445;-79
2023/06/07 10:34:16;;;;;;;4.47;4.03;;;;;;;24.91;54.21;94958.78;5053763;28;20534;-79
2023/06/07 10:36:43;;;;;;;5.10;4.53;;;;;;;24.97;54.50;94957.91;5053643;28;20458;-79
2023/06/07 10:39:11;;;;;;;4.93;4.50;;;;;;;24.76;53.77;94955.56;5053410;28;20485;-79
2023/06/07 10:41:40;;;;;;;7.70;4.47;;;;;;;24.85;54.05;94960.47;5053475;28;20438;-78
2023/06/07 10:44:07;;;;;;;7.60;4.17;;;;;;;24.93;54.65;94952.16;5053345;28;20470;-79
2023/06/07 10:46:34;;;;;;;4.67;4.10;;;;;;;24.92;53.35;94955.91;5053505;28;20856;-79
2023/06/07 10:49:01;;;;;;;7.27;4.93;;;;;;;25.05;53.61;94960.38;5053274;28;20442;-79
2023/06/07 10:52:07;;;;;;;11.17;4.77;;;;;;;24.86;53.39;94955.91;5053297;28;20811;-79
2023/06/07 10:54:37;;;;;;;3.97;3.57;;;;;;;24.87;53.30;94958.41;4991740;28;20452;-78
2023/06/07 10:57:05;;;;;;;9.87;4.40;;;;;;;24.77;53.22;94951.84;4991106;28;20555;-79
2023/06/07 10:59:32;;;;;;;5.60;4.00;;;;;;;24.99;53.54;94948.63;4991054;28;20504;-79
2023/06/07 11:02:29;;;;;;;8.43;4.40;;;;;;;25.07;53.64;94947.53;4991515;28;20448;-79
2023/06/07 11:04:57;;;;;;;4.67;3.77;;;;;;;25.16;51.78;94943.56;4952642;29;20466;-79
2023/06/07 11:07:27;;;;;;;8.47;3.97;;;;;;;25.06;53.75;94945.91;4952725;29;20446;-79
2023/06/07 11:10:35;;;;;;;4.30;3.90;;;;;;;24.92;52.24;94937.09;4952527;29;20454;-80
2023/06/07 11:13:04;;;;;;;5.73;4.47;;;;;;;24.84;53.62;94934.66;4952496;29;20918;-79
2023/06/07 11:15:35;;;;;;;5.00;4.50;;;;;;;24.92;54.06;94939.78;4952695;29;20446;-79
2023/06/07 11:18:04;;;;;;;4.37;3.73;;;;;;;24.79;52.96;94923.75;4952478;29;20949;-79
2023/06/07 11:20:51;;;;;;;5.93;4.27;;;;;;;24.90;53.68;94927.63;4952250;29;21015;-80
2023/06/07 11:23:26;;;;;;;12.47;4.60;;;;;;;24.96;53.41;94924.06;4952263;29;20528;-79
2023/06/07 11:25:55;;;;;;;5.90;3.90;;;;;;;25.21;56.09;94927.59;4952148;29;20493;-80
2023/06/07 11:28:26;;;;;;;4.53;4.03;;;;;;;25.26;54.53;94925.09;4921101;29;20523;-79
2023/06/07 11:30:53;;;;;;;8.90;4.60;;;;;;;25.26;51.85;94918.88;4964187;28;20510;-80
2023/06/07 11:33:21;;;;;;;4.80;3.53;;;;;;;24.93;51.28;94919.94;5010348;28;20439;-79
2023/06/07 11:35:49;;;;;;;4.20;3.90;;;;;;;24.68;51.96;94911.03;5010420;28;20447;-80
2023/06/07 11:38:16;;;;;;;4.30;3.90;;;;;;;24.68;52.55;94927.97;5016786;28;20947;-79
2023/06/07 11:40:43;;;;;;;4.20;3.73;;;;;;;24.81;53.03;94910.09;5017243;28;20485;-79